sensor_id;sensor_type;location;lat;lon;timestamp;temperature;humidity
18882;DHT22;9573;50.948;11.600;2023-06-26T00:01:40;18.70;99.90
18882;DHT22;9573;50.948;11.600;2023-06-26T00:04:08;18.70;99.90
18882;DHT22;9573;50.948;11.600;2023-06-26T00:06:39;18.70;99.90
18882;DHT22;9573;50.948;11.600;2023-06-26T00:09:10;18.60;99.90
18882;DHT22;9573;50.948;11.600;2023-06-26T00:11:39;18.50;99.90
18882;DHT22;9573;50.948;11.600;2023-06-26T00:14:06;18.50;99.90
18882;DHT22;9573;50.948;11.600;2023-06-26T00:16:33;18.50;99.90
18882;DHT22;9573;50.948;11.600;2023-06-26T00:19:00;18.40;99.90
18882;DHT22;9573;50.948;11.600;2023-06-26T00:21:27;18.40;99.90
18882;DHT22;9573;50.948;11.600;2023-06-26T00:23:55;18.30;99.90
18882;DHT22;9573;50.948;11.600;2023-06-26T00:26:22;18.30;99.90
18882;DHT22;9573;50.948;11.600;2023-06-26T00:28:51;18.30;99.90
18882;DHT22;9573;50.948;11.600;2023-06-26T00:31:19;18.20;99.90
18882;DHT22;9573;50.948;11.600;2023-06-26T00:33:46;18.20;99.90
18882;DHT22;9573;50.948;11.600;2023-06-26T00:36:13;18.10;99.90
18882;DHT22;9573;50.948;11.600;2023-06-26T00:38:41;18.10;99.90
18882;DHT22;9573;50.948;11.600;2023-06-26T00:41:08;18.00;99.90
18882;DHT22;9573;50.948;11.600;2023-06-26T00:43:38;18.10;99.90
18882;DHT22;9573;50.948;11.600;2023-06-26T00:46:10;18.00;99.90
18882;DHT22;9573;50.948;11.600;2023-06-26T00:48:42;18.00;99.90
18882;DHT22;9573;50.948;11.600;2023-06-26T00:58:31;17.80;99.90
18882;DHT22;9573;50.948;11.600;2023-06-26T01:00:58;17.80;99.90
18882;DHT22;9573;50.948;11.600;2023-06-26T01:03:27;17.70;99.90
18882;DHT22;9573;50.948;11.600;2023-06-26T01:05:56;17.70;99.90
18882;DHT22;9573;50.948;11.600;2023-06-26T01:08:23;17.70;99.90
18882;DHT22;9573;50.948;11.600;2023-06-26T01:10:51;17.60;99.90
18882;DHT22;9573;50.948;11.600;2023-06-26T01:13:18;17.60;99.90
18882;DHT22;9573;50.948;11.600;2023-06-26T01:15:46;17.60;99.90
18882;DHT22;9573;50.948;11.600;2023-06-26T01:18:14;17.60;99.90
18882;DHT22;9573;50.948;11.600;2023-06-26T01:20:44;17.60;99.90
18882;DHT22;9573;50.948;11.600;2023-06-26T01:23:16;17.50;99.90
18882;DHT22;9573;50.948;11.600;2023-06-26T01:28:44;17.50;99.90
18882;DHT22;9573;50.948;11.600;2023-06-26T01:31:12;17.50;99.90
18882;DHT22;9573;50.948;11.600;2023-06-26T01:33:40;17.40;99.90
18882;DHT22;9573;50.948;11.600;2023-06-26T01:40:52;17.40;99.90
18882;DHT22;9573;50.948;11.600;2023-06-26T01:43:26;17.30;99.90
18882;DHT22;9573;50.948;11.600;2023-06-26T01:45:59;17.30;99.90
18882;DHT22;9573;50.948;11.600;2023-06-26T01:48:32;17.30;99.90
18882;DHT22;9573;50.948;11.600;2023-06-26T01:51:02;17.20;99.90
18882;DHT22;9573;50.948;11.600;2023-06-26T01:53:39;17.20;99.90
18882;DHT22;9573;50.948;11.600;2023-06-26T01:56:12;17.20;99.90
18882;DHT22;9573;50.948;11.600;2023-06-26T01:58:43;17.20;99.90
18882;DHT22;9573;50.948;11.600;2023-06-26T02:01:12;17.10;99.90
18882;DHT22;9573;50.948;11.600;2023-06-26T02:03:39;17.10;99.90
18882;DHT22;9573;50.948;11.600;2023-06-26T02:06:06;17.10;99.90
18882;DHT22;9573;50.948;11.600;2023-06-26T02:08:34;17.20;99.90
18882;DHT22;9573;50.948;11.600;2023-06-26T02:11:01;17.20;99.90
18882;DHT22;9573;50.948;11.600;2023-06-26T02:13:28;17.20;99.90
18882;DHT22;9573;50.948;11.600;2023-06-26T02:15:56;17.20;99.90
18882;DHT22;9573;50.948;11.600;2023-06-26T02:18:23;17.20;99.90
18882;DHT22;9573;50.948;11.600;2023-06-26T02:20:50;17.30;99.90
18882;DHT22;9573;50.948;11.600;2023-06-26T02:23:17;17.30;99.90
18882;DHT22;9573;50.948;11.600;2023-06-26T02:25:44;17.20;99.90
18882;DHT22;9573;50.948;11.600;2023-06-26T02:28:11;17.20;99.90
18882;DHT22;9573;50.948;11.600;2023-06-26T02:30:38;17.20;99.90
18882;DHT22;9573;50.948;11.600;2023-06-26T02:33:07;17.20;99.90
18882;DHT22;9573;50.948;11.600;2023-06-26T02:35:34;17.20;99.90
18882;DHT22;9573;50.948;11.600;2023-06-26T02:38:01;17.10;99.90
18882;DHT22;9573;50.948;11.600;2023-06-26T02:40:28;17.10;99.90
18882;DHT22;9573;50.948;11.600;2023-06-26T02:42:55;17.10;99.90
18882;DHT22;9573;50.948;11.600;2023-06-26T02:45:22;17.10;99.90
18882;DHT22;9573;50.948;11.600;2023-06-26T02:47:50;17.00;99.90
18882;DHT22;9573;50.948;11.600;2023-06-26T02:50:18;17.00;99.90
18882;DHT22;9573;50.948;11.600;2023-06-26T02:52:45;17.00;99.90
18882;DHT22;9573;50.948;11.600;2023-06-26T02:55:16;17.00;99.90
18882;DHT22;9573;50.948;11.600;2023-06-26T02:57:43;17.00;99.90
18882;DHT22;9573;50.948;11.600;2023-06-26T03:00:11;17.00;99.90
18882;DHT22;9573;50.948;11.600;2023-06-26T03:02:39;17.00;99.90
18882;DHT22;9573;50.948;11.600;2023-06-26T03:05:06;17.00;99.90
18882;DHT22;9573;50.948;11.600;2023-06-26T03:07:35;17.00;99.90
18882;DHT22;9573;50.948;11.600;2023-06-26T03:10:02;17.00;99.90
18882;DHT22;9573;50.948;11.600;2023-06-26T03:12:43;17.00;99.90
18882;DHT22;9573;50.948;11.600;2023-06-26T03:15:10;17.00;99.90
18882;DHT22;9573;50.948;11.600;2023-06-26T03:17:37;17.00;99.90
18882;DHT22;9573;50.948;11.600;2023-06-26T03:20:06;17.10;99.90
18882;DHT22;9573;50.948;11.600;2023-06-26T03:22:36;17.10;99.90
18882;DHT22;9573;50.948;11.600;2023-06-26T03:25:03;17.20;99.90
18882;DHT22;9573;50.948;11.600;2023-06-26T03:27:31;17.20;99.90
18882;DHT22;9573;50.948;11.600;2023-06-26T03:29:58;17.40;99.90
18882;DHT22;9573;50.948;11.600;2023-06-26T03:32:25;18.00;99.90
18882;DHT22;9573;50.948;11.600;2023-06-26T03:34:52;18.80;99.90
18882;DHT22;9573;50.948;11.600;2023-06-26T03:37:19;19.60;99.90
18882;DHT22;9573;50.948;11.600;2023-06-26T03:39:48;20.20;99.90
18882;DHT22;9573;50.948;11.600;2023-06-26T03:42:15;20.90;99.90
18882;DHT22;9573;50.948;11.600;2023-06-26T03:44:42;21.50;99.90
18882;DHT22;9573;50.948;11.600;2023-06-26T03:47:09;22.10;99.90
18882;DHT22;9573;50.948;11.600;2023-06-26T03:49:36;22.70;99.90
18882;DHT22;9573;50.948;11.600;2023-06-26T03:52:04;23.20;99.90
18882;DHT22;9573;50.948;11.600;2023-06-26T03:54:31;23.60;99.90
18882;DHT22;9573;50.948;11.600;2023-06-26T03:57:00;24.10;99.90
18882;DHT22;9573;50.948;11.600;2023-06-26T03:59:27;24.70;99.90
18882;DHT22;9573;50.948;11.600;2023-06-26T04:01:55;25.00;99.90
18882;DHT22;9573;50.948;11.600;2023-06-26T04:04:22;25.70;99.90
18882;DHT22;9573;50.948;11.600;2023-06-26T04:06:49;26.50;99.90
18882;DHT22;9573;50.948;11.600;2023-06-26T04:09:16;27.20;99.90
18882;DHT22;9573;50.948;11.600;2023-06-26T04:11:44;27.80;99.90
18882;DHT22;9573;50.948;11.600;2023-06-26T04:14:13;28.40;99.90
18882;DHT22;9573;50.948;11.600;2023-06-26T04:16:40;29.00;99.90
18882;DHT22;9573;50.948;11.600;2023-06-26T04:19:07;29.30;99.90
18882;DHT22;9573;50.948;11.600;2023-06-26T04:21:35;29.90;99.90
18882;DHT22;9573;50.948;11.600;2023-06-26T04:24:03;30.30;99.90
18882;DHT22;9573;50.948;11.600;2023-06-26T04:26:30;30.40;99.90
18882;DHT22;9573;50.948;11.600;2023-06-26T04:28:58;30.60;99.90
18882;DHT22;9573;50.948;11.600;2023-06-26T04:31:27;30.90;99.50
18882;DHT22;9573;50.948;11.600;2023-06-26T04:33:54;31.50;97.80
18882;DHT22;9573;50.948;11.600;2023-06-26T04:36:21;32.00;96.10
18882;DHT22;9573;50.948;11.600;2023-06-26T04:38:48;32.30;94.10
18882;DHT22;9573;50.948;11.600;2023-06-26T04:41:15;32.40;93.00
18882;DHT22;9573;50.948;11.600;2023-06-26T04:43:42;32.50;92.10
18882;DHT22;9573;50.948;11.600;2023-06-26T04:46:09;32.70;91.40
18882;DHT22;9573;50.948;11.600;2023-06-26T04:48:38;33.00;90.50
18882;DHT22;9573;50.948;11.600;2023-06-26T04:51:05;33.30;90.20
18882;DHT22;9573;50.948;11.600;2023-06-26T04:53:32;33.70;88.10
18882;DHT22;9573;50.948;11.600;2023-06-26T04:55:59;33.90;86.40
18882;DHT22;9573;50.948;11.600;2023-06-26T04:58:26;34.10;84.60
18882;DHT22;9573;50.948;11.600;2023-06-26T05:00:53;34.40;83.80
18882;DHT22;9573;50.948;11.600;2023-06-26T05:03:21;34.50;82.80
18882;DHT22;9573;50.948;11.600;2023-06-26T05:05:49;34.50;81.50
18882;DHT22;9573;50.948;11.600;2023-06-26T05:08:20;34.60;80.00
18882;DHT22;9573;50.948;11.600;2023-06-26T05:10:48;34.80;78.60
18882;DHT22;9573;50.948;11.600;2023-06-26T05:13:16;34.80;78.10
18882;DHT22;9573;50.948;11.600;2023-06-26T05:15:45;35.00;77.90
18882;DHT22;9573;50.948;11.600;2023-06-26T05:18:19;35.30;76.50
18882;DHT22;9573;50.948;11.600;2023-06-26T05:20:47;35.70;75.50
18882;DHT22;9573;50.948;11.600;2023-06-26T05:23:16;36.00;73.70
18882;DHT22;9573;50.948;11.600;2023-06-26T05:25:45;36.30;72.90
18882;DHT22;9573;50.948;11.600;2023-06-26T05:28:16;36.60;72.10
18882;DHT22;9573;50.948;11.600;2023-06-26T05:38:06;37.50;67.80
18882;DHT22;9573;50.948;11.600;2023-06-26T05:40:35;37.80;67.10
18882;DHT22;9573;50.948;11.600;2023-06-26T05:43:03;38.10;65.60
18882;DHT22;9573;50.948;11.600;2023-06-26T05:45:30;38.70;64.70
18882;DHT22;9573;50.948;11.600;2023-06-26T05:47:57;38.80;63.60
18882;DHT22;9573;50.948;11.600;2023-06-26T05:50:26;38.90;62.90
18882;DHT22;9573;50.948;11.600;2023-06-26T05:52:55;39.20;62.30
18882;DHT22;9573;50.948;11.600;2023-06-26T05:55:23;39.30;61.10
18882;DHT22;9573;50.948;11.600;2023-06-26T05:57:57;39.40;61.30
18882;DHT22;9573;50.948;11.600;2023-06-26T06:00:26;39.60;60.40
18882;DHT22;9573;50.948;11.600;2023-06-26T06:02:54;40.00;59.40
18882;DHT22;9573;50.948;11.600;2023-06-26T06:05:21;40.20;59.30
18882;DHT22;9573;50.948;11.600;2023-06-26T06:07:49;40.60;58.40
18882;DHT22;9573;50.948;11.600;2023-06-26T06:10:17;40.90;58.40
18882;DHT22;9573;50.948;11.600;2023-06-26T06:12:44;41.00;57.20
18882;DHT22;9573;50.948;11.600;2023-06-26T06:15:12;41.10;57.40
18882;DHT22;9573;50.948;11.600;2023-06-26T06:17:39;41.50;56.40
18882;DHT22;9573;50.948;11.600;2023-06-26T06:20:07;41.70;56.20
18882;DHT22;9573;50.948;11.600;2023-06-26T06:22:35;41.80;55.60
18882;DHT22;9573;50.948;11.600;2023-06-26T06:25:05;42.10;55.20
18882;DHT22;9573;50.948;11.600;2023-06-26T06:27:32;42.30;54.60
18882;DHT22;9573;50.948;11.600;2023-06-26T06:29:59;42.50;54.20
18882;DHT22;9573;50.948;11.600;2023-06-26T06:32:28;42.60;54.40
18882;DHT22;9573;50.948;11.600;2023-06-26T06:34:55;42.60;53.40
18882;DHT22;9573;50.948;11.600;2023-06-26T06:37:23;42.80;53.80
18882;DHT22;9573;50.948;11.600;2023-06-26T06:39:51;43.00;52.40
18882;DHT22;9573;50.948;11.600;2023-06-26T06:42:18;43.40;52.90
18882;DHT22;9573;50.948;11.600;2023-06-26T06:44:45;43.60;51.90
18882;DHT22;9573;50.948;11.600;2023-06-26T06:47:13;43.70;51.30
18882;DHT22;9573;50.948;11.600;2023-06-26T06:49:41;44.00;50.60
18882;DHT22;9573;50.948;11.600;2023-06-26T06:52:08;44.30;51.10
18882;DHT22;9573;50.948;11.600;2023-06-26T06:54:51;44.50;50.90
18882;DHT22;9573;50.948;11.600;2023-06-26T06:57:18;44.90;50.10
18882;DHT22;9573;50.948;11.600;2023-06-26T06:59:46;45.30;49.60
18882;DHT22;9573;50.948;11.600;2023-06-26T07:02:14;45.60;48.90
18882;DHT22;9573;50.948;11.600;2023-06-26T07:04:44;45.90;48.30
18882;DHT22;9573;50.948;11.600;2023-06-26T07:07:12;46.30;47.60
18882;DHT22;9573;50.948;11.600;2023-06-26T07:09:40;46.60;47.70
18882;DHT22;9573;50.948;11.600;2023-06-26T07:12:07;46.80;46.50
18882;DHT22;9573;50.948;11.600;2023-06-26T07:14:35;47.00;46.30
18882;DHT22;9573;50.948;11.600;2023-06-26T07:17:02;47.10;46.30
18882;DHT22;9573;50.948;11.600;2023-06-26T07:19:29;47.20;45.60
18882;DHT22;9573;50.948;11.600;2023-06-26T07:21:57;47.10;45.20
18882;DHT22;9573;50.948;11.600;2023-06-26T07:24:24;47.00;46.00
18882;DHT22;9573;50.948;11.600;2023-06-26T07:26:52;47.10;45.30
18882;DHT22;9573;50.948;11.600;2023-06-26T07:29:19;47.20;45.00
18882;DHT22;9573;50.948;11.600;2023-06-26T07:31:46;47.30;44.70
18882;DHT22;9573;50.948;11.600;2023-06-26T07:34:13;47.20;45.20
18882;DHT22;9573;50.948;11.600;2023-06-26T07:36:40;47.30;45.10
18882;DHT22;9573;50.948;11.600;2023-06-26T07:39:09;47.70;44.80
18882;DHT22;9573;50.948;11.600;2023-06-26T07:41:36;48.10;44.20
18882;DHT22;9573;50.948;11.600;2023-06-26T07:44:03;48.50;43.70
18882;DHT22;9573;50.948;11.600;2023-06-26T07:53:52;48.80;42.80
18882;DHT22;9573;50.948;11.600;2023-06-26T07:56:20;48.70;43.40
18882;DHT22;9573;50.948;11.600;2023-06-26T07:58:48;48.70;43.40
18882;DHT22;9573;50.948;11.600;2023-06-26T08:01:15;48.50;43.10
18882;DHT22;9573;50.948;11.600;2023-06-26T08:03:42;48.80;43.00
18882;DHT22;9573;50.948;11.600;2023-06-26T08:06:09;49.20;42.60
18882;DHT22;9573;50.948;11.600;2023-06-26T08:08:36;49.70;42.40
18882;DHT22;9573;50.948;11.600;2023-06-26T08:11:05;50.00;42.10
18882;DHT22;9573;50.948;11.600;2023-06-26T08:13:33;50.00;42.20
18882;DHT22;9573;50.948;11.600;2023-06-26T08:16:00;50.30;42.00
18882;DHT22;9573;50.948;11.600;2023-06-26T08:18:27;50.30;41.00
18882;DHT22;9573;50.948;11.600;2023-06-26T08:20:55;50.30;40.90
18882;DHT22;9573;50.948;11.600;2023-06-26T08:23:22;50.40;40.90
18882;DHT22;9573;50.948;11.600;2023-06-26T08:25:50;50.30;41.40
18882;DHT22;9573;50.948;11.600;2023-06-26T08:28:17;50.00;41.00
18882;DHT22;9573;50.948;11.600;2023-06-26T08:30:45;50.30;41.00
18882;DHT22;9573;50.948;11.600;2023-06-26T08:33:12;50.50;40.40
18882;DHT22;9573;50.948;11.600;2023-06-26T08:35:40;50.80;40.60
18882;DHT22;9573;50.948;11.600;2023-06-26T08:38:07;50.80;40.00
18882;DHT22;9573;50.948;11.600;2023-06-26T08:40:35;50.40;40.10
18882;DHT22;9573;50.948;11.600;2023-06-26T08:43:02;50.50;39.80
18882;DHT22;9573;50.948;11.600;2023-06-26T08:45:29;50.80;38.70
18882;DHT22;9573;50.948;11.600;2023-06-26T08:48:00;50.80;38.40
18882;DHT22;9573;50.948;11.600;2023-06-26T08:50:30;51.00;38.30
18882;DHT22;9573;50.948;11.600;2023-06-26T08:53:04;50.80;37.20
18882;DHT22;9573;50.948;11.600;2023-06-26T08:55:38;50.10;37.60
18882;DHT22;9573;50.948;11.600;2023-06-26T08:58:08;50.10;37.50
18882;DHT22;9573;50.948;11.600;2023-06-26T09:00:35;49.90;37.20
18882;DHT22;9573;50.948;11.600;2023-06-26T09:03:04;49.60;37.80
18882;DHT22;9573;50.948;11.600;2023-06-26T09:05:32;49.30;37.60
18882;DHT22;9573;50.948;11.600;2023-06-26T09:07:59;49.20;37.20
18882;DHT22;9573;50.948;11.600;2023-06-26T09:10:26;49.10;38.20
18882;DHT22;9573;50.948;11.600;2023-06-26T09:12:55;49.30;38.10
18882;DHT22;9573;50.948;11.600;2023-06-26T09:15:26;49.40;38.00
18882;DHT22;9573;50.948;11.600;2023-06-26T09:17:57;48.90;38.10
18882;DHT22;9573;50.948;11.600;2023-06-26T09:20:27;48.90;37.90
18882;DHT22;9573;50.948;11.600;2023-06-26T09:22:56;48.60;37.60
18882;DHT22;9573;50.948;11.600;2023-06-26T09:25:23;47.90;39.00
18882;DHT22;9573;50.948;11.600;2023-06-26T09:27:51;47.90;38.70
18882;DHT22;9573;50.948;11.600;2023-06-26T09:30:19;48.10;38.90
18882;DHT22;9573;50.948;11.600;2023-06-26T09:32:46;48.10;38.30
18882;DHT22;9573;50.948;11.600;2023-06-26T09:35:13;48.00;37.90
18882;DHT22;9573;50.948;11.600;2023-06-26T09:37:43;47.70;38.70
18882;DHT22;9573;50.948;11.600;2023-06-26T09:40:11;47.40;38.00
18882;DHT22;9573;50.948;11.600;2023-06-26T09:42:38;46.80;38.50
18882;DHT22;9573;50.948;11.600;2023-06-26T09:45:05;47.40;38.70
18882;DHT22;9573;50.948;11.600;2023-06-26T09:47:34;47.70;39.10
18882;DHT22;9573;50.948;11.600;2023-06-26T09:50:03;48.10;37.70
18882;DHT22;9573;50.948;11.600;2023-06-26T09:52:31;48.20;37.20
18882;DHT22;9573;50.948;11.600;2023-06-26T09:55:11;48.00;37.50
18882;DHT22;9573;50.948;11.600;2023-06-26T09:57:39;48.20;38.10
18882;DHT22;9573;50.948;11.600;2023-06-26T10:00:08;48.30;37.10
18882;DHT22;9573;50.948;11.600;2023-06-26T10:02:37;48.20;37.00
18882;DHT22;9573;50.948;11.600;2023-06-26T10:05:05;47.90;37.00
18882;DHT22;9573;50.948;11.600;2023-06-26T10:07:32;47.60;37.80
18882;DHT22;9573;50.948;11.600;2023-06-26T10:10:01;47.20;37.50
18882;DHT22;9573;50.948;11.600;2023-06-26T10:12:30;46.70;38.20
18882;DHT22;9573;50.948;11.600;2023-06-26T10:14:59;46.50;38.60
18882;DHT22;9573;50.948;11.600;2023-06-26T10:17:32;46.40;38.90
18882;DHT22;9573;50.948;11.600;2023-06-26T10:20:03;46.60;37.80
18882;DHT22;9573;50.948;11.600;2023-06-26T10:22:36;46.20;38.20
18882;DHT22;9573;50.948;11.600;2023-06-26T10:25:07;46.20;38.60
18882;DHT22;9573;50.948;11.600;2023-06-26T10:27:38;46.10;38.60
18882;DHT22;9573;50.948;11.600;2023-06-26T10:30:13;45.80;39.70
18882;DHT22;9573;50.948;11.600;2023-06-26T10:32:41;46.10;39.20
18882;DHT22;9573;50.948;11.600;2023-06-26T10:35:10;46.30;39.20
18882;DHT22;9573;50.948;11.600;2023-06-26T10:37:41;46.40;39.20
18882;DHT22;9573;50.948;11.600;2023-06-26T10:40:10;46.60;39.00
18882;DHT22;9573;50.948;11.600;2023-06-26T10:42:39;46.60;38.90
18882;DHT22;9573;50.948;11.600;2023-06-26T10:45:11;45.80;39.60
18882;DHT22;9573;50.948;11.600;2023-06-26T10:47:41;45.60;39.50
18882;DHT22;9573;50.948;11.600;2023-06-26T10:50:23;45.20;39.10
18882;DHT22;9573;50.948;11.600;2023-06-26T10:53:08;45.00;39.70
18882;DHT22;9573;50.948;11.600;2023-06-26T10:55:36;45.00;39.80
18882;DHT22;9573;50.948;11.600;2023-06-26T10:58:31;45.00;40.20
18882;DHT22;9573;50.948;11.600;2023-06-26T11:01:20;45.10;39.90
18882;DHT22;9573;50.948;11.600;2023-06-26T11:03:49;44.20;40.30
18882;DHT22;9573;50.948;11.600;2023-06-26T11:06:29;44.10;40.90
18882;DHT22;9573;50.948;11.600;2023-06-26T11:09:01;44.30;41.10
18882;DHT22;9573;50.948;11.600;2023-06-26T11:11:56;44.10;40.10
18882;DHT22;9573;50.948;11.600;2023-06-26T11:14:30;43.60;40.60
18882;DHT22;9573;50.948;11.600;2023-06-26T11:16:58;43.60;41.20
18882;DHT22;9573;50.948;11.600;2023-06-26T11:19:26;44.00;40.70
18882;DHT22;9573;50.948;11.600;2023-06-26T11:22:04;44.20;40.90
18882;DHT22;9573;50.948;11.600;2023-06-26T11:24:32;43.70;41.30
18882;DHT22;9573;50.948;11.600;2023-06-26T11:27:00;43.20;41.60
18882;DHT22;9573;50.948;11.600;2023-06-26T11:29:31;43.10;41.30
18882;DHT22;9573;50.948;11.600;2023-06-26T11:32:00;42.90;42.00
18882;DHT22;9573;50.948;11.600;2023-06-26T11:34:32;43.10;42.10
18882;DHT22;9573;50.948;11.600;2023-06-26T11:37:01;42.90;41.70
18882;DHT22;9573;50.948;11.600;2023-06-26T11:39:28;42.80;41.20
18882;DHT22;9573;50.948;11.600;2023-06-26T11:41:56;42.60;41.70
18882;DHT22;9573;50.948;11.600;2023-06-26T11:44:23;42.50;42.40
18882;DHT22;9573;50.948;11.600;2023-06-26T11:46:57;42.30;42.30
18882;DHT22;9573;50.948;11.600;2023-06-26T11:49:24;42.30;41.90
18882;DHT22;9573;50.948;11.600;2023-06-26T11:51:53;42.30;41.70
18882;DHT22;9573;50.948;11.600;2023-06-26T11:54:25;42.20;42.00
18882;DHT22;9573;50.948;11.600;2023-06-26T11:56:54;42.20;42.30
18882;DHT22;9573;50.948;11.600;2023-06-26T11:59:33;42.00;42.60
18882;DHT22;9573;50.948;11.600;2023-06-26T12:02:05;41.80;43.50
18882;DHT22;9573;50.948;11.600;2023-06-26T12:04:34;42.00;43.60
18882;DHT22;9573;50.948;11.600;2023-06-26T12:07:03;41.90;43.10
18882;DHT22;9573;50.948;11.600;2023-06-26T12:09:33;41.90;42.80
18882;DHT22;9573;50.948;11.600;2023-06-26T12:12:00;41.90;42.20
18882;DHT22;9573;50.948;11.600;2023-06-26T12:14:28;41.30;42.50
18882;DHT22;9573;50.948;11.600;2023-06-26T12:16:56;41.00;43.20
18882;DHT22;9573;50.948;11.600;2023-06-26T12:19:34;40.80;44.10
18882;DHT22;9573;50.948;11.600;2023-06-26T12:22:06;40.70;43.90
18882;DHT22;9573;50.948;11.600;2023-06-26T12:24:36;40.80;44.20
18882;DHT22;9573;50.948;11.600;2023-06-26T12:27:08;40.70;43.80
18882;DHT22;9573;50.948;11.600;2023-06-26T12:29:38;40.40;44.50
18882;DHT22;9573;50.948;11.600;2023-06-26T12:32:10;40.50;43.90
18882;DHT22;9573;50.948;11.600;2023-06-26T12:34:38;40.50;43.60
18882;DHT22;9573;50.948;11.600;2023-06-26T12:37:08;40.20;43.10
18882;DHT22;9573;50.948;11.600;2023-06-26T12:39:49;39.50;44.20
18882;DHT22;9573;50.948;11.600;2023-06-26T12:42:18;39.00;44.30
18882;DHT22;9573;50.948;11.600;2023-06-26T12:44:46;38.40;45.10
18882;DHT22;9573;50.948;11.600;2023-06-26T12:47:17;37.90;45.40
18882;DHT22;9573;50.948;11.600;2023-06-26T12:49:45;37.40;46.10
18882;DHT22;9573;50.948;11.600;2023-06-26T12:52:17;37.10;47.30
18882;DHT22;9573;50.948;11.600;2023-06-26T12:54:46;37.50;47.40
18882;DHT22;9573;50.948;11.600;2023-06-26T12:57:14;37.80;47.20
18882;DHT22;9573;50.948;11.600;2023-06-26T12:59:41;37.80;47.60
18882;DHT22;9573;50.948;11.600;2023-06-26T13:02:09;37.80;47.60
18882;DHT22;9573;50.948;11.600;2023-06-26T13:04:38;37.90;47.80
18882;DHT22;9573;50.948;11.600;2023-06-26T13:07:06;37.60;47.10
18882;DHT22;9573;50.948;11.600;2023-06-26T13:09:34;37.00;47.40
18882;DHT22;9573;50.948;11.600;2023-06-26T13:12:02;36.50;48.50
18882;DHT22;9573;50.948;11.600;2023-06-26T13:14:30;36.30;48.80
18882;DHT22;9573;50.948;11.600;2023-06-26T13:16:57;36.40;49.80
18882;DHT22;9573;50.948;11.600;2023-06-26T13:19:24;36.90;49.00
18882;DHT22;9573;50.948;11.600;2023-06-26T13:21:53;37.40;48.30
18882;DHT22;9573;50.948;11.600;2023-06-26T13:24:20;37.20;48.20
18882;DHT22;9573;50.948;11.600;2023-06-26T13:26:47;36.90;48.70
18882;DHT22;9573;50.948;11.600;2023-06-26T13:29:14;36.40;49.30
18882;DHT22;9573;50.948;11.600;2023-06-26T13:31:42;35.90;50.30
18882;DHT22;9573;50.948;11.600;2023-06-26T13:34:09;35.50;51.10
18882;DHT22;9573;50.948;11.600;2023-06-26T13:36:46;35.10;51.80
18882;DHT22;9573;50.948;11.600;2023-06-26T13:39:15;34.70;52.70
18882;DHT22;9573;50.948;11.600;2023-06-26T13:41:42;34.20;55.10
18882;DHT22;9573;50.948;11.600;2023-06-26T13:44:09;33.90;56.80
18882;DHT22;9573;50.948;11.600;2023-06-26T13:46:36;33.50;58.50
18882;DHT22;9573;50.948;11.600;2023-06-26T13:49:03;33.00;61.30
18882;DHT22;9573;50.948;11.600;2023-06-26T13:51:30;32.50;63.20
18882;DHT22;9573;50.948;11.600;2023-06-26T13:53:57;32.00;64.40
18882;DHT22;9573;50.948;11.600;2023-06-26T13:56:27;31.90;64.80
18882;DHT22;9573;50.948;11.600;2023-06-26T13:58:56;32.20;64.50
18882;DHT22;9573;50.948;11.600;2023-06-26T14:01:24;32.60;64.50
18882;DHT22;9573;50.948;11.600;2023-06-26T14:03:51;32.40;65.60
18882;DHT22;9573;50.948;11.600;2023-06-26T14:06:18;32.40;67.30
18882;DHT22;9573;50.948;11.600;2023-06-26T14:08:45;32.20;68.70
18882;DHT22;9573;50.948;11.600;2023-06-26T14:11:12;32.00;70.30
18882;DHT22;9573;50.948;11.600;2023-06-26T14:13:42;31.70;71.10
18882;DHT22;9573;50.948;11.600;2023-06-26T14:16:09;31.80;71.80
18882;DHT22;9573;50.948;11.600;2023-06-26T14:18:37;32.00;71.50
18882;DHT22;9573;50.948;11.600;2023-06-26T14:21:04;32.30;71.80
18882;DHT22;9573;50.948;11.600;2023-06-26T14:23:31;32.10;72.10
18882;DHT22;9573;50.948;11.600;2023-06-26T14:25:58;32.00;73.00
18882;DHT22;9573;50.948;11.600;2023-06-26T14:28:25;32.10;74.50
18882;DHT22;9573;50.948;11.600;2023-06-26T14:30:54;31.90;71.60
18882;DHT22;9573;50.948;11.600;2023-06-26T14:33:21;31.50;72.70
18882;DHT22;9573;50.948;11.600;2023-06-26T14:35:48;31.30;73.60
18882;DHT22;9573;50.948;11.600;2023-06-26T14:38:15;30.90;74.10
18882;DHT22;9573;50.948;11.600;2023-06-26T14:40:42;30.50;74.50
18882;DHT22;9573;50.948;11.600;2023-06-26T14:43:09;30.30;75.20
18882;DHT22;9573;50.948;11.600;2023-06-26T14:45:36;30.10;75.70
18882;DHT22;9573;50.948;11.600;2023-06-26T14:48:05;29.80;76.00
18882;DHT22;9573;50.948;11.600;2023-06-26T14:50:32;29.60;76.50
18882;DHT22;9573;50.948;11.600;2023-06-26T14:52:59;29.60;77.00
18882;DHT22;9573;50.948;11.600;2023-06-26T14:55:27;29.70;76.80
18882;DHT22;9573;50.948;11.600;2023-06-26T14:57:54;29.80;76.80
18882;DHT22;9573;50.948;11.600;2023-06-26T15:00:21;29.70;76.80
18882;DHT22;9573;50.948;11.600;2023-06-26T15:02:49;29.50;77.50
18882;DHT22;9573;50.948;11.600;2023-06-26T15:05:20;29.70;77.40
18882;DHT22;9573;50.948;11.600;2023-06-26T15:07:47;30.10;76.90
18882;DHT22;9573;50.948;11.600;2023-06-26T15:10:15;30.20;75.80
18882;DHT22;9573;50.948;11.600;2023-06-26T15:12:42;30.50;75.60
18882;DHT22;9573;50.948;11.600;2023-06-26T15:15:10;30.80;75.10
18882;DHT22;9573;50.948;11.600;2023-06-26T15:17:37;30.70;74.90
18882;DHT22;9573;50.948;11.600;2023-06-26T15:20:05;30.40;75.60
18882;DHT22;9573;50.948;11.600;2023-06-26T15:22:34;30.20;76.60
18882;DHT22;9573;50.948;11.600;2023-06-26T15:25:02;30.10;77.70
18882;DHT22;9573;50.948;11.600;2023-06-26T15:27:29;29.90;77.40
18882;DHT22;9573;50.948;11.600;2023-06-26T15:29:56;29.90;78.10
18882;DHT22;9573;50.948;11.600;2023-06-26T15:32:23;29.90;78.30
18882;DHT22;9573;50.948;11.600;2023-06-26T15:34:51;30.00;77.80
18882;DHT22;9573;50.948;11.600;2023-06-26T15:37:19;30.10;77.50
18882;DHT22;9573;50.948;11.600;2023-06-26T15:39:48;30.20;77.80
18882;DHT22;9573;50.948;11.600;2023-06-26T15:42:15;30.10;77.50
18882;DHT22;9573;50.948;11.600;2023-06-26T15:44:42;30.10;77.60
18882;DHT22;9573;50.948;11.600;2023-06-26T15:47:09;30.00;77.80
18882;DHT22;9573;50.948;11.600;2023-06-26T15:49:37;29.70;78.50
18882;DHT22;9573;50.948;11.600;2023-06-26T15:52:05;29.30;80.00
18882;DHT22;9573;50.948;11.600;2023-06-26T15:54:33;28.90;80.50
18882;DHT22;9573;50.948;11.600;2023-06-26T15:57:02;28.50;81.90
18882;DHT22;9573;50.948;11.600;2023-06-26T15:59:29;28.30;82.90
18882;DHT22;9573;50.948;11.600;2023-06-26T16:01:56;28.30;83.40
18882;DHT22;9573;50.948;11.600;2023-06-26T16:04:23;28.40;83.60
18882;DHT22;9573;50.948;11.600;2023-06-26T16:06:50;28.70;83.40
18882;DHT22;9573;50.948;11.600;2023-06-26T16:09:18;28.90;82.90